sensor_id;sensor_type;location;lat;lon;timestamp;P1;durP1;ratioP1;P2;durP2;ratioP2
36593;SDS011;22603;47.900;8.146;2023-05-19T00:00:56;5.33;;;1.80;;
36593;SDS011;22603;47.900;8.146;2023-05-19T00:03:48;7.00;;;2.10;;
36593;SDS011;22603;47.900;8.146;2023-05-19T00:06:38;4.77;;;1.73;;
36593;SDS011;22603;47.900;8.146;2023-05-19T00:09:25;3.77;;;1.50;;
36593;SDS011;22603;47.900;8.146;2023-05-19T00:12:15;7.00;;;2.07;;
36593;SDS011;22603;47.900;8.146;2023-05-19T00:15:03;7.13;;;2.03;;
36593;SDS011;22603;47.900;8.146;2023-05-19T00:17:51;4.33;;;1.57;;
36593;SDS011;22603;47.900;8.146;2023-05-19T00:20:39;4.97;;;1.87;;
36593;SDS011;22603;47.900;8.146;2023-05-19T00:23:26;5.90;;;1.93;;
36593;SDS011;22603;47.900;8.146;2023-05-19T00:26:13;11.07;;;2.03;;
36593;SDS011;22603;47.900;8.146;2023-05-19T00:29:01;6.30;;;1.80;;
36593;SDS011;22603;47.900;8.146;2023-05-19T00:31:48;7.33;;;2.10;;
36593;SDS011;22603;47.900;8.146;2023-05-19T00:34:35;5.23;;;1.90;;
36593;SDS011;22603;47.900;8.146;2023-05-19T00:37:22;4.03;;;1.80;;
36593;SDS011;22603;47.900;8.146;2023-05-19T00:40:09;3.60;;;1.47;;
36593;SDS011;22603;47.900;8.146;2023-05-19T00:42:56;7.60;;;1.67;;
36593;SDS011;22603;47.900;8.146;2023-05-19T00:45:45;3.80;;;1.77;;
36593;SDS011;22603;47.900;8.146;2023-05-19T00:48:32;8.70;;;1.83;;
36593;SDS011;22603;47.900;8.146;2023-05-19T00:51:19;6.17;;;1.93;;
36593;SDS011;22603;47.900;8.146;2023-05-19T00:54:07;5.67;;;1.77;;
36593;SDS011;22603;47.900;8.146;2023-05-19T00:56:56;2.80;;;1.70;;
36593;SDS011;22603;47.900;8.146;2023-05-19T00:59:45;5.03;;;1.73;;
36593;SDS011;22603;47.900;8.146;2023-05-19T01:02:33;4.37;;;1.83;;
36593;SDS011;22603;47.900;8.146;2023-05-19T01:05:22;5.10;;;2.00;;
36593;SDS011;22603;47.900;8.146;2023-05-19T01:08:09;6.33;;;1.90;;
36593;SDS011;22603;47.900;8.146;2023-05-19T01:10:56;5.20;;;1.70;;
36593;SDS011;22603;47.900;8.146;2023-05-19T01:13:43;6.37;;;2.17;;
36593;SDS011;22603;47.900;8.146;2023-05-19T01:16:32;7.60;;;2.00;;
36593;SDS011;22603;47.900;8.146;2023-05-19T01:19:31;7.03;;;1.87;;
36593;SDS011;22603;47.900;8.146;2023-05-19T01:22:38;7.27;;;2.17;;
36593;SDS011;22603;47.900;8.146;2023-05-19T01:29:09;7.47;;;2.10;;
36593;SDS011;22603;47.900;8.146;2023-05-19T01:32:18;4.83;;;1.80;;
36593;SDS011;22603;47.900;8.146;2023-05-19T01:35:06;7.23;;;2.40;;
36593;SDS011;22603;47.900;8.146;2023-05-19T01:37:56;6.87;;;2.40;;
36593;SDS011;22603;47.900;8.146;2023-05-19T01:40:45;4.97;;;1.97;;
36593;SDS011;22603;47.900;8.146;2023-05-19T01:43:33;5.23;;;1.83;;
36593;SDS011;22603;47.900;8.146;2023-05-19T01:46:20;5.80;;;1.93;;
36593;SDS011;22603;47.900;8.146;2023-05-19T01:49:10;7.30;;;2.20;;
36593;SDS011;22603;47.900;8.146;2023-05-19T01:51:57;6.90;;;1.90;;
36593;SDS011;22603;47.900;8.146;2023-05-19T01:54:44;7.43;;;2.23;;
36593;SDS011;22603;47.900;8.146;2023-05-19T01:57:32;5.93;;;1.80;;
36593;SDS011;22603;47.900;8.146;2023-05-19T02:00:30;5.90;;;2.20;;
36593;SDS011;22603;47.900;8.146;2023-05-19T02:03:29;6.53;;;2.13;;
36593;SDS011;22603;47.900;8.146;2023-05-19T02:06:28;5.70;;;2.30;;
36593;SDS011;22603;47.900;8.146;2023-05-19T02:09:21;4.33;;;1.80;;
36593;SDS011;22603;47.900;8.146;2023-05-19T02:12:13;5.27;;;1.87;;
36593;SDS011;22603;47.900;8.146;2023-05-19T02:15:06;9.23;;;2.30;;
36593;SDS011;22603;47.900;8.146;2023-05-19T02:17:56;9.20;;;2.17;;
36593;SDS011;22603;47.900;8.146;2023-05-19T02:20:48;7.13;;;2.00;;
36593;SDS011;22603;47.900;8.146;2023-05-19T02:23:36;5.77;;;2.10;;
36593;SDS011;22603;47.900;8.146;2023-05-19T02:26:23;7.20;;;2.10;;
36593;SDS011;22603;47.900;8.146;2023-05-19T02:29:10;5.60;;;1.97;;
36593;SDS011;22603;47.900;8.146;2023-05-19T02:32:00;4.67;;;1.90;;
36593;SDS011;22603;47.900;8.146;2023-05-19T02:34:47;6.10;;;2.07;;
36593;SDS011;22603;47.900;8.146;2023-05-19T02:37:35;6.53;;;2.40;;
36593;SDS011;22603;47.900;8.146;2023-05-19T02:40:23;8.03;;;2.13;;
36593;SDS011;22603;47.900;8.146;2023-05-19T02:43:10;6.90;;;2.57;;
36593;SDS011;22603;47.900;8.146;2023-05-19T02:45:57;5.90;;;2.27;;
36593;SDS011;22603;47.900;8.146;2023-05-19T02:48:44;9.20;;;2.53;;
36593;SDS011;22603;47.900;8.146;2023-05-19T02:51:31;7.27;;;2.50;;
36593;SDS011;22603;47.900;8.146;2023-05-19T02:54:18;7.27;;;2.40;;
36593;SDS011;22603;47.900;8.146;2023-05-19T02:57:08;6.97;;;2.50;;
36593;SDS011;22603;47.900;8.146;2023-05-19T02:59:56;6.93;;;2.57;;
36593;SDS011;22603;47.900;8.146;2023-05-19T03:02:43;8.30;;;2.33;;
36593;SDS011;22603;47.900;8.146;2023-05-19T03:05:31;6.03;;;1.87;;
36593;SDS011;22603;47.900;8.146;2023-05-19T03:08:18;8.93;;;2.60;;
36593;SDS011;22603;47.900;8.146;2023-05-19T03:11:05;6.07;;;1.90;;
36593;SDS011;22603;47.900;8.146;2023-05-19T03:13:53;7.70;;;2.13;;
36593;SDS011;22603;47.900;8.146;2023-05-19T03:16:40;7.53;;;2.47;;
36593;SDS011;22603;47.900;8.146;2023-05-19T03:19:27;7.07;;;2.30;;
36593;SDS011;22603;47.900;8.146;2023-05-19T03:22:16;7.87;;;2.20;;
36593;SDS011;22603;47.900;8.146;2023-05-19T03:25:05;7.43;;;2.00;;
36593;SDS011;22603;47.900;8.146;2023-05-19T03:27:52;6.87;;;2.00;;
36593;SDS011;22603;47.900;8.146;2023-05-19T03:30:40;6.20;;;2.30;;
36593;SDS011;22603;47.900;8.146;2023-05-19T03:33:27;4.03;;;2.00;;
36593;SDS011;22603;47.900;8.146;2023-05-19T03:36:14;4.90;;;2.23;;
36593;SDS011;22603;47.900;8.146;2023-05-19T03:39:01;7.17;;;2.20;;
36593;SDS011;22603;47.900;8.146;2023-05-19T03:41:48;5.10;;;2.00;;
36593;SDS011;22603;47.900;8.146;2023-05-19T03:44:35;7.67;;;2.27;;
36593;SDS011;22603;47.900;8.146;2023-05-19T03:47:23;4.30;;;1.80;;
36593;SDS011;22603;47.900;8.146;2023-05-19T03:50:10;8.00;;;2.40;;
36593;SDS011;22603;47.900;8.146;2023-05-19T03:52:57;4.00;;;2.00;;
36593;SDS011;22603;47.900;8.146;2023-05-19T03:55:44;5.10;;;2.00;;
36593;SDS011;22603;47.900;8.146;2023-05-19T03:58:34;5.77;;;2.00;;
36593;SDS011;22603;47.900;8.146;2023-05-19T04:01:24;7.70;;;2.20;;
36593;SDS011;22603;47.900;8.146;2023-05-19T04:04:13;6.87;;;2.30;;
36593;SDS011;22603;47.900;8.146;2023-05-19T04:07:00;6.03;;;2.17;;
36593;SDS011;22603;47.900;8.146;2023-05-19T04:09:47;10.97;;;2.37;;
36593;SDS011;22603;47.900;8.146;2023-05-19T04:12:34;9.63;;;2.47;;
36593;SDS011;22603;47.900;8.146;2023-05-19T04:15:21;10.97;;;2.50;;
36593;SDS011;22603;47.900;8.146;2023-05-19T04:18:08;5.30;;;2.23;;
36593;SDS011;22603;47.900;8.146;2023-05-19T04:20:57;4.77;;;2.30;;
36593;SDS011;22603;47.900;8.146;2023-05-19T04:23:44;7.73;;;2.20;;
36593;SDS011;22603;47.900;8.146;2023-05-19T04:26:31;6.37;;;2.43;;
36593;SDS011;22603;47.900;8.146;2023-05-19T04:29:19;6.60;;;2.33;;
36593;SDS011;22603;47.900;8.146;2023-05-19T04:32:08;10.53;;;3.13;;
36593;SDS011;22603;47.900;8.146;2023-05-19T04:34:55;6.90;;;2.30;;
36593;SDS011;22603;47.900;8.146;2023-05-19T04:37:44;11.03;;;2.73;;
36593;SDS011;22603;47.900;8.146;2023-05-19T04:40:31;4.53;;;2.33;;
36593;SDS011;22603;47.900;8.146;2023-05-19T04:43:18;7.50;;;2.70;;
36593;SDS011;22603;47.900;8.146;2023-05-19T04:46:06;6.07;;;2.43;;
36593;SDS011;22603;47.900;8.146;2023-05-19T04:48:57;5.60;;;2.37;;
36593;SDS011;22603;47.900;8.146;2023-05-19T04:51:45;8.17;;;2.57;;
36593;SDS011;22603;47.900;8.146;2023-05-19T04:54:36;9.97;;;2.90;;
36593;SDS011;22603;47.900;8.146;2023-05-19T04:57:24;7.33;;;2.30;;
36593;SDS011;22603;47.900;8.146;2023-05-19T05:00:12;9.50;;;2.77;;
36593;SDS011;22603;47.900;8.146;2023-05-19T05:03:03;5.80;;;2.20;;
36593;SDS011;22603;47.900;8.146;2023-05-19T05:05:51;8.70;;;2.53;;
36593;SDS011;22603;47.900;8.146;2023-05-19T05:08:38;6.07;;;2.37;;
36593;SDS011;22603;47.900;8.146;2023-05-19T05:11:27;9.03;;;2.20;;
36593;SDS011;22603;47.900;8.146;2023-05-19T05:14:14;7.23;;;2.17;;
36593;SDS011;22603;47.900;8.146;2023-05-19T05:17:02;6.60;;;2.40;;
36593;SDS011;22603;47.900;8.146;2023-05-19T05:19:50;5.60;;;2.43;;
36593;SDS011;22603;47.900;8.146;2023-05-19T05:22:38;12.97;;;2.80;;
36593;SDS011;22603;47.900;8.146;2023-05-19T05:25:26;8.07;;;2.63;;
36593;SDS011;22603;47.900;8.146;2023-05-19T05:28:15;8.20;;;2.57;;
36593;SDS011;22603;47.900;8.146;2023-05-19T05:31:02;6.43;;;2.20;;
36593;SDS011;22603;47.900;8.146;2023-05-19T05:33:49;7.33;;;2.47;;
36593;SDS011;22603;47.900;8.146;2023-05-19T05:36:36;5.07;;;2.10;;
36593;SDS011;22603;47.900;8.146;2023-05-19T05:39:23;4.57;;;2.00;;
36593;SDS011;22603;47.900;8.146;2023-05-19T05:42:11;5.20;;;2.20;;
36593;SDS011;22603;47.900;8.146;2023-05-19T05:44:59;5.67;;;2.00;;
36593;SDS011;22603;47.900;8.146;2023-05-19T05:47:47;5.10;;;2.00;;
36593;SDS011;22603;47.900;8.146;2023-05-19T05:50:34;7.10;;;2.00;;
36593;SDS011;22603;47.900;8.146;2023-05-19T05:53:22;7.07;;;2.03;;
36593;SDS011;22603;47.900;8.146;2023-05-19T05:56:11;4.40;;;1.80;;
36593;SDS011;22603;47.900;8.146;2023-05-19T05:58:58;4.03;;;1.63;;
36593;SDS011;22603;47.900;8.146;2023-05-19T06:01:47;5.47;;;1.90;;
36593;SDS011;22603;47.900;8.146;2023-05-19T06:04:35;5.83;;;2.10;;
36593;SDS011;22603;47.900;8.146;2023-05-19T06:07:22;6.83;;;2.00;;
36593;SDS011;22603;47.900;8.146;2023-05-19T06:10:09;4.03;;;1.60;;
36593;SDS011;22603;47.900;8.146;2023-05-19T06:12:56;6.40;;;2.00;;
36593;SDS011;22603;47.900;8.146;2023-05-19T06:15:43;5.07;;;2.00;;
36593;SDS011;22603;47.900;8.146;2023-05-19T06:18:32;3.40;;;1.70;;
36593;SDS011;22603;47.900;8.146;2023-05-19T06:21:21;4.63;;;1.73;;
36593;SDS011;22603;47.900;8.146;2023-05-19T06:24:08;4.57;;;1.90;;
36593;SDS011;22603;47.900;8.146;2023-05-19T06:26:57;6.47;;;2.37;;
36593;SDS011;22603;47.900;8.146;2023-05-19T06:29:44;4.13;;;1.87;;
36593;SDS011;22603;47.900;8.146;2023-05-19T06:32:31;5.50;;;1.87;;
36593;SDS011;22603;47.900;8.146;2023-05-19T06:35:20;5.17;;;1.87;;
36593;SDS011;22603;47.900;8.146;2023-05-19T06:38:07;6.73;;;2.00;;
36593;SDS011;22603;47.900;8.146;2023-05-19T06:40:57;4.67;;;1.63;;
36593;SDS011;22603;47.900;8.146;2023-05-19T06:43:44;4.20;;;1.60;;
36593;SDS011;22603;47.900;8.146;2023-05-19T06:46:31;10.40;;;2.33;;
36593;SDS011;22603;47.900;8.146;2023-05-19T06:49:18;4.03;;;1.60;;
36593;SDS011;22603;47.900;8.146;2023-05-19T06:52:07;3.13;;;1.42;;
36593;SDS011;22603;47.900;8.146;2023-05-19T06:54:54;5.28;;;1.50;;
36593;SDS011;22603;47.900;8.146;2023-05-19T06:57:41;3.42;;;1.60;;
36593;SDS011;22603;47.900;8.146;2023-05-19T07:00:28;6.85;;;1.73;;
36593;SDS011;22603;47.900;8.146;2023-05-19T07:03:18;5.63;;;1.88;;
36593;SDS011;22603;47.900;8.146;2023-05-19T07:06:05;4.50;;;1.90;;
36593;SDS011;22603;47.900;8.146;2023-05-19T07:08:55;4.22;;;1.73;;
36593;SDS011;22603;47.900;8.146;2023-05-19T07:11:42;6.03;;;1.83;;
36593;SDS011;22603;47.900;8.146;2023-05-19T07:14:29;3.72;;;1.40;;
36593;SDS011;22603;47.900;8.146;2023-05-19T07:17:16;3.13;;;1.42;;
36593;SDS011;22603;47.900;8.146;2023-05-19T07:20:04;3.72;;;1.48;;
36593;SDS011;22603;47.900;8.146;2023-05-19T07:22:54;5.75;;;1.50;;
36593;SDS011;22603;47.900;8.146;2023-05-19T07:25:42;3.22;;;1.60;;
36593;SDS011;22603;47.900;8.146;2023-05-19T07:28:29;2.15;;;1.42;;
36593;SDS011;22603;47.900;8.146;2023-05-19T07:31:16;4.20;;;1.40;;
36593;SDS011;22603;47.900;8.146;2023-05-19T07:34:03;5.90;;;1.40;;
36593;SDS011;22603;47.900;8.146;2023-05-19T07:36:50;5.70;;;1.75;;
36593;SDS011;22603;47.900;8.146;2023-05-19T07:39:37;3.78;;;1.50;;
36593;SDS011;22603;47.900;8.146;2023-05-19T07:42:25;3.38;;;1.50;;
36593;SDS011;22603;47.900;8.146;2023-05-19T07:45:12;5.85;;;1.60;;
36593;SDS011;22603;47.900;8.146;2023-05-19T07:47:59;3.92;;;1.70;;
36593;SDS011;22603;47.900;8.146;2023-05-19T07:50:46;5.55;;;1.80;;
36593;SDS011;22603;47.900;8.146;2023-05-19T07:53:33;6.55;;;2.10;;
36593;SDS011;22603;47.900;8.146;2023-05-19T07:56:20;4.82;;;2.00;;
36593;SDS011;22603;47.900;8.146;2023-05-19T07:59:10;3.85;;;1.77;;
36593;SDS011;22603;47.900;8.146;2023-05-19T08:01:57;4.35;;;1.60;;
36593;SDS011;22603;47.900;8.146;2023-05-19T08:04:44;3.45;;;1.45;;
36593;SDS011;22603;47.900;8.146;2023-05-19T08:07:32;4.20;;;1.80;;
36593;SDS011;22603;47.900;8.146;2023-05-19T08:10:22;6.25;;;2.20;;
36593;SDS011;22603;47.900;8.146;2023-05-19T08:13:09;5.57;;;2.10;;
36593;SDS011;22603;47.900;8.146;2023-05-19T08:15:57;6.88;;;1.98;;
36593;SDS011;22603;47.900;8.146;2023-05-19T08:18:44;3.22;;;1.52;;
36593;SDS011;22603;47.900;8.146;2023-05-19T08:21:32;4.68;;;1.83;;
36593;SDS011;22603;47.900;8.146;2023-05-19T08:24:19;4.53;;;1.88;;
36593;SDS011;22603;47.900;8.146;2023-05-19T08:27:07;3.83;;;1.75;;
36593;SDS011;22603;47.900;8.146;2023-05-19T08:29:54;4.72;;;1.90;;
36593;SDS011;22603;47.900;8.146;2023-05-19T08:32:43;9.55;;;2.15;;
36593;SDS011;22603;47.900;8.146;2023-05-19T08:35:30;6.25;;;1.83;;
36593;SDS011;22603;47.900;8.146;2023-05-19T08:38:17;7.28;;;1.90;;
36593;SDS011;22603;47.900;8.146;2023-05-19T08:41:05;4.43;;;1.65;;
36593;SDS011;22603;47.900;8.146;2023-05-19T08:43:52;7.50;;;2.40;;
36593;SDS011;22603;47.900;8.146;2023-05-19T08:46:39;5.32;;;1.67;;
36593;SDS011;22603;47.900;8.146;2023-05-19T08:49:29;4.85;;;1.80;;
36593;SDS011;22603;47.900;8.146;2023-05-19T08:52:22;6.45;;;1.92;;
36593;SDS011;22603;47.900;8.146;2023-05-19T08:55:18;7.38;;;2.00;;
36593;SDS011;22603;47.900;8.146;2023-05-19T08:58:18;3.78;;;1.63;;
36593;SDS011;22603;47.900;8.146;2023-05-19T09:01:06;4.97;;;1.90;;
36593;SDS011;22603;47.900;8.146;2023-05-19T09:03:54;4.57;;;1.90;;
36593;SDS011;22603;47.900;8.146;2023-05-19T09:06:43;4.85;;;1.95;;
36593;SDS011;22603;47.900;8.146;2023-05-19T09:09:30;6.75;;;2.15;;
36593;SDS011;22603;47.900;8.146;2023-05-19T09:12:17;4.13;;;1.80;;
36593;SDS011;22603;47.900;8.146;2023-05-19T09:15:04;4.68;;;1.85;;
36593;SDS011;22603;47.900;8.146;2023-05-19T09:18:01;8.50;;;2.40;;
36593;SDS011;22603;47.900;8.146;2023-05-19T09:20:55;5.47;;;2.13;;
36593;SDS011;22603;47.900;8.146;2023-05-19T09:23:45;5.63;;;2.20;;
36593;SDS011;22603;47.900;8.146;2023-05-19T09:26:36;8.77;;;2.20;;
36593;SDS011;22603;47.900;8.146;2023-05-19T09:29:23;5.28;;;1.88;;
36593;SDS011;22603;47.900;8.146;2023-05-19T09:32:10;6.00;;;2.17;;
36593;SDS011;22603;47.900;8.146;2023-05-19T09:35:01;4.13;;;1.63;;
36593;SDS011;22603;47.900;8.146;2023-05-19T09:37:48;4.13;;;1.63;;
36593;SDS011;22603;47.900;8.146;2023-05-19T09:40:36;6.05;;;2.10;;
36593;SDS011;22603;47.900;8.146;2023-05-19T09:43:26;4.80;;;1.70;;
36593;SDS011;22603;47.900;8.146;2023-05-19T09:46:13;11.93;;;2.30;;
36593;SDS011;22603;47.900;8.146;2023-05-19T09:49:03;6.65;;;2.22;;
36593;SDS011;22603;47.900;8.146;2023-05-19T09:51:54;10.73;;;3.38;;
36593;SDS011;22603;47.900;8.146;2023-05-19T09:54:41;7.53;;;2.75;;
36593;SDS011;22603;47.900;8.146;2023-05-19T09:57:33;5.47;;;2.20;;
36593;SDS011;22603;47.900;8.146;2023-05-19T10:00:22;5.45;;;2.10;;
36593;SDS011;22603;47.900;8.146;2023-05-19T10:03:09;5.55;;;2.10;;
36593;SDS011;22603;47.900;8.146;2023-05-19T10:05:57;3.83;;;2.00;;
36593;SDS011;22603;47.900;8.146;2023-05-19T10:08:45;9.55;;;2.17;;
36593;SDS011;22603;47.900;8.146;2023-05-19T10:11:34;5.07;;;2.00;;
36593;SDS011;22603;47.900;8.146;2023-05-19T10:14:23;6.72;;;1.92;;
36593;SDS011;22603;47.900;8.146;2023-05-19T10:17:10;5.35;;;2.10;;
36593;SDS011;22603;47.900;8.146;2023-05-19T10:19:58;4.78;;;1.90;;
36593;SDS011;22603;47.900;8.146;2023-05-19T10:22:46;3.65;;;1.88;;
36593;SDS011;22603;47.900;8.146;2023-05-19T10:25:33;4.85;;;2.10;;
36593;SDS011;22603;47.900;8.146;2023-05-19T10:28:22;4.65;;;1.65;;
36593;SDS011;22603;47.900;8.146;2023-05-19T10:31:15;5.03;;;1.85;;
36593;SDS011;22603;47.900;8.146;2023-05-19T10:34:12;6.82;;;1.92;;
36593;SDS011;22603;47.900;8.146;2023-05-19T10:37:20;8.00;;;1.98;;
36593;SDS011;22603;47.900;8.146;2023-05-19T10:40:17;7.15;;;2.00;;
36593;SDS011;22603;47.900;8.146;2023-05-19T10:43:12;6.45;;;2.33;;
36593;SDS011;22603;47.900;8.146;2023-05-19T10:46:05;7.00;;;2.28;;
36593;SDS011;22603;47.900;8.146;2023-05-19T10:48:53;5.35;;;1.98;;
36593;SDS011;22603;47.900;8.146;2023-05-19T10:51:40;4.32;;;1.83;;
36593;SDS011;22603;47.900;8.146;2023-05-19T10:54:40;5.70;;;2.17;;
36593;SDS011;22603;47.900;8.146;2023-05-19T10:57:28;7.85;;;1.92;;
36593;SDS011;22603;47.900;8.146;2023-05-19T11:00:25;6.00;;;2.10;;
36593;SDS011;22603;47.900;8.146;2023-05-19T11:03:13;5.18;;;2.20;;
36593;SDS011;22603;47.900;8.146;2023-05-19T11:06:17;4.78;;;2.05;;
36593;SDS011;22603;47.900;8.146;2023-05-19T11:09:11;5.55;;;2.20;;
36593;SDS011;22603;47.900;8.146;2023-05-19T11:12:01;7.82;;;2.28;;
36593;SDS011;22603;47.900;8.146;2023-05-19T11:14:50;4.63;;;2.15;;
36593;SDS011;22603;47.900;8.146;2023-05-19T11:17:38;7.13;;;2.10;;
36593;SDS011;22603;47.900;8.146;2023-05-19T11:20:27;5.53;;;2.10;;
36593;SDS011;22603;47.900;8.146;2023-05-19T11:23:17;9.45;;;2.22;;
36593;SDS011;22603;47.900;8.146;2023-05-19T11:26:07;5.47;;;1.92;;
36593;SDS011;22603;47.900;8.146;2023-05-19T11:28:54;5.78;;;2.30;;
36593;SDS011;22603;47.900;8.146;2023-05-19T11:31:41;6.95;;;2.13;;
36593;SDS011;22603;47.900;8.146;2023-05-19T11:34:29;5.35;;;2.17;;
36593;SDS011;22603;47.900;8.146;2023-05-19T11:37:16;7.43;;;2.67;;
36593;SDS011;22603;47.900;8.146;2023-05-19T11:40:06;6.82;;;2.30;;
36593;SDS011;22603;47.900;8.146;2023-05-19T11:42:56;4.63;;;2.13;;
36593;SDS011;22603;47.900;8.146;2023-05-19T11:45:46;6.53;;;2.30;;
36593;SDS011;22603;47.900;8.146;2023-05-19T11:48:34;4.47;;;2.00;;
36593;SDS011;22603;47.900;8.146;2023-05-19T11:51:21;6.45;;;2.10;;
36593;SDS011;22603;47.900;8.146;2023-05-19T11:54:08;7.18;;;2.17;;
36593;SDS011;22603;47.900;8.146;2023-05-19T11:57:00;8.90;;;2.38;;
36593;SDS011;22603;47.900;8.146;2023-05-19T11:59:47;8.10;;;2.40;;
36593;SDS011;22603;47.900;8.146;2023-05-19T12:02:36;6.72;;;2.25;;
36593;SDS011;22603;47.900;8.146;2023-05-19T12:05:24;14.25;;;2.47;;
36593;SDS011;22603;47.900;8.146;2023-05-19T12:08:12;7.10;;;2.70;;
36593;SDS011;22603;47.900;8.146;2023-05-19T12:10:59;5.65;;;2.42;;
36593;SDS011;22603;47.900;8.146;2023-05-19T12:13:48;8.02;;;2.50;;
36593;SDS011;22603;47.900;8.146;2023-05-19T12:16:38;6.35;;;2.13;;
36593;SDS011;22603;47.900;8.146;2023-05-19T12:19:26;5.65;;;2.10;;
36593;SDS011;22603;47.900;8.146;2023-05-19T12:22:13;8.48;;;2.80;;
36593;SDS011;22603;47.900;8.146;2023-05-19T12:25:01;7.40;;;2.30;;
36593;SDS011;22603;47.900;8.146;2023-05-19T12:27:49;8.02;;;2.20;;
36593;SDS011;22603;47.900;8.146;2023-05-19T12:30:42;6.75;;;2.35;;
36593;SDS011;22603;47.900;8.146;2023-05-19T12:33:33;12.15;;;2.80;;
36593;SDS011;22603;47.900;8.146;2023-05-19T12:36:20;6.90;;;2.63;;
36593;SDS011;22603;47.900;8.146;2023-05-19T12:39:10;9.20;;;2.45;;
36593;SDS011;22603;47.900;8.146;2023-05-19T12:42:01;8.35;;;2.35;;
36593;SDS011;22603;47.900;8.146;2023-05-19T12:44:49;12.82;;;2.78;;
36593;SDS011;22603;47.900;8.146;2023-05-19T12:47:38;5.25;;;2.30;;
36593;SDS011;22603;47.900;8.146;2023-05-19T12:50:28;6.75;;;2.40;;
36593;SDS011;22603;47.900;8.146;2023-05-19T12:53:17;6.95;;;2.25;;
36593;SDS011;22603;47.900;8.146;2023-05-19T12:56:09;8.18;;;2.60;;
36593;SDS011;22603;47.900;8.146;2023-05-19T12:58:59;6.63;;;2.63;;
36593;SDS011;22603;47.900;8.146;2023-05-19T13:01:53;8.65;;;2.47;;
36593;SDS011;22603;47.900;8.146;2023-05-19T13:04:43;6.55;;;2.50;;
36593;SDS011;22603;47.900;8.146;2023-05-19T13:07:30;9.75;;;3.00;;
36593;SDS011;22603;47.900;8.146;2023-05-19T13:10:16;7.57;;;2.90;;
36593;SDS011;22603;47.900;8.146;2023-05-19T13:13:04;8.50;;;2.80;;
36593;SDS011;22603;47.900;8.146;2023-05-19T13:15:51;8.38;;;2.78;;
36593;SDS011;22603;47.900;8.146;2023-05-19T13:18:38;7.82;;;2.58;;
36593;SDS011;22603;47.900;8.146;2023-05-19T13:21:27;7.65;;;2.88;;
36593;SDS011;22603;47.900;8.146;2023-05-19T13:24:14;9.02;;;2.85;;
36593;SDS011;22603;47.900;8.146;2023-05-19T13:27:01;6.57;;;2.55;;
36593;SDS011;22603;47.900;8.146;2023-05-19T13:29:49;8.52;;;2.80;;
36593;SDS011;22603;47.900;8.146;2023-05-19T13:32:36;10.25;;;3.03;;
36593;SDS011;22603;47.900;8.146;2023-05-19T13:35:23;9.63;;;2.83;;
36593;SDS011;22603;47.900;8.146;2023-05-19T13:38:12;7.22;;;3.03;;
36593;SDS011;22603;47.900;8.146;2023-05-19T13:40:59;10.25;;;3.08;;
36593;SDS011;22603;47.900;8.146;2023-05-19T13:43:46;9.05;;;3.15;;
36593;SDS011;22603;47.900;8.146;2023-05-19T13:46:33;9.25;;;2.97;;
36593;SDS011;22603;47.900;8.146;2023-05-19T13:49:30;8.25;;;3.20;;
36593;SDS011;22603;47.900;8.146;2023-05-19T13:52:17;7.40;;;2.97;;
36593;SDS011;22603;47.900;8.146;2023-05-19T13:55:06;8.82;;;3.22;;
36593;SDS011;22603;47.900;8.146;2023-05-19T13:57:54;10.63;;;2.90;;
36593;SDS011;22603;47.900;8.146;2023-05-19T14:00:40;9.68;;;3.40;;
36593;SDS011;22603;47.900;8.146;2023-05-19T14:03:27;6.88;;;2.50;;
36593;SDS011;22603;47.900;8.146;2023-05-19T14:06:15;8.73;;;3.40;;
36593;SDS011;22603;47.900;8.146;2023-05-19T14:09:01;13.53;;;2.90;;
36593;SDS011;22603;47.900;8.146;2023-05-19T14:11:50;10.27;;;3.33;;
36593;SDS011;22603;47.900;8.146;2023-05-19T14:14:37;7.32;;;2.92;;
36593;SDS011;22603;47.900;8.146;2023-05-19T14:17:25;8.47;;;3.30;;
36593;SDS011;22603;47.900;8.146;2023-05-19T14:20:12;13.30;;;2.90;;
36593;SDS011;22603;47.900;8.146;2023-05-19T14:22:59;10.10;;;3.17;;
36593;SDS011;22603;47.900;8.146;2023-05-19T14:25:47;7.93;;;3.03;;
36593;SDS011;22603;47.900;8.146;2023-05-19T14:28:36;10.50;;;3.33;;
36593;SDS011;22603;47.900;8.146;2023-05-19T14:31:24;8.60;;;3.25;;
36593;SDS011;22603;47.900;8.146;2023-05-19T14:34:11;10.47;;;3.90;;
36593;SDS011;22603;47.900;8.146;2023-05-19T14:37:01;11.17;;;3.40;;
36593;SDS011;22603;47.900;8.146;2023-05-19T14:39:49;11.15;;;4.30;;
36593;SDS011;22603;47.900;8.146;2023-05-19T14:42:36;10.00;;;4.40;;
36593;SDS011;22603;47.900;8.146;2023-05-19T14:45:24;11.18;;;4.18;;
36593;SDS011;22603;47.900;8.146;2023-05-19T14:48:11;12.57;;;4.70;;
36593;SDS011;22603;47.900;8.146;2023-05-19T14:50:58;7.47;;;2.97;;
36593;SDS011;22603;47.900;8.146;2023-05-19T14:53:46;9.37;;;3.80;;
36593;SDS011;22603;47.900;8.146;2023-05-19T14:56:34;11.73;;;3.90;;
36593;SDS011;22603;47.900;8.146;2023-05-19T14:59:21;11.87;;;3.43;;
36593;SDS011;22603;47.900;8.146;2023-05-19T15:02:10;11.10;;;3.83;;
36593;SDS011;22603;47.900;8.146;2023-05-19T15:04:57;9.60;;;3.30;;
36593;SDS011;22603;47.900;8.146;2023-05-19T15:07:45;10.40;;;3.63;;
36593;SDS011;22603;47.900;8.146;2023-05-19T15:10:32;11.27;;;3.60;;
36593;SDS011;22603;47.900;8.146;2023-05-19T15:13:19;8.07;;;3.30;;
36593;SDS011;22603;47.900;8.146;2023-05-19T15:16:06;7.97;;;3.67;;
36593;SDS011;22603;47.900;8.146;2023-05-19T15:19:04;12.43;;;3.67;;
36593;SDS011;22603;47.900;8.146;2023-05-19T15:21:51;10.50;;;3.67;;
36593;SDS011;22603;47.900;8.146;2023-05-19T15:24:38;8.23;;;3.63;;
36593;SDS011;22603;47.900;8.146;2023-05-19T15:27:26;9.70;;;3.60;;
36593;SDS011;22603;47.900;8.146;2023-05-19T15:30:13;12.63;;;3.87;;
36593;SDS011;22603;47.900;8.146;2023-05-19T15:33:01;9.40;;;3.67;;
36593;SDS011;22603;47.900;8.146;2023-05-19T15:35:49;10.40;;;3.50;;
36593;SDS011;22603;47.900;8.146;2023-05-19T15:38:37;9.03;;;3.80;;
36593;SDS011;22603;47.900;8.146;2023-05-19T15:41:24;8.30;;;4.03;;
36593;SDS011;22603;47.900;8.146;2023-05-19T15:44:11;7.87;;;3.47;;
36593;SDS011;22603;47.900;8.146;2023-05-19T15:46:58;8.97;;;3.97;;
36593;SDS011;22603;47.900;8.146;2023-05-19T15:49:45;11.23;;;3.77;;
36593;SDS011;22603;47.900;8.146;2023-05-19T15:52:33;13.17;;;4.30;;
36593;SDS011;22603;47.900;8.146;2023-05-19T15:55:20;13.40;;;3.90;;
36593;SDS011;22603;47.900;8.146;2023-05-19T15:58:07;13.63;;;4.03;;
36593;SDS011;22603;47.900;8.146;2023-05-19T16:00:54;9.53;;;3.77;;
36593;SDS011;22603;47.900;8.146;2023-05-19T16:03:42;9.87;;;3.43;;
36593;SDS011;22603;47.900;8.146;2023-05-19T16:06:29;12.10;;;3.80;;
36593;SDS011;22603;47.900;8.146;2023-05-19T16:09:18;8.63;;;3.80;;
36593;SDS011;22603;47.900;8.146;2023-05-19T16:12:05;7.77;;;3.40;;
36593;SDS011;22603;47.900;8.146;2023-05-19T16:14:56;7.57;;;3.33;;
36593;SDS011;22603;47.900;8.146;2023-05-19T16:17:43;10.97;;;3.53;;
36593;SDS011;22603;47.900;8.146;2023-05-19T16:20:30;11.90;;;3.97;;
36593;SDS011;22603;47.900;8.146;2023-05-19T16:23:17;14.80;;;3.50;;
36593;SDS011;22603;47.900;8.146;2023-05-19T16:26:06;12.93;;;4.00;;
36593;SDS011;22603;47.900;8.146;2023-05-19T16:28:53;10.87;;;3.53;;
36593;SDS011;22603;47.900;8.146;2023-05-19T16:31:41;8.47;;;3.50;;
36593;SDS011;22603;47.900;8.146;2023-05-19T16:34:28;12.70;;;3.90;;
36593;SDS011;22603;47.900;8.146;2023-05-19T16:37:15;9.43;;;3.60;;
36593;SDS011;22603;47.900;8.146;2023-05-19T16:40:02;10.70;;;3.50;;
36593;SDS011;22603;47.900;8.146;2023-05-19T16:42:52;8.37;;;3.60;;
36593;SDS011;22603;47.900;8.146;2023-05-19T16:45:39;9.00;;;3.70;;
36593;SDS011;22603;47.900;8.146;2023-05-19T16:48:26;10.03;;;3.90;;
36593;SDS011;22603;47.900;8.146;2023-05-19T16:51:13;10.77;;;3.63;;
36593;SDS011;22603;47.900;8.146;2023-05-19T16:54:00;10.20;;;3.60;;
36593;SDS011;22603;47.900;8.146;2023-05-19T16:56:48;8.70;;;3.63;;